createdAt,value
2018-08-27T00:00:17.794Z,15.40
2018-08-27T00:02:49.366Z,15.40
2018-08-27T00:05:21.187Z,15.40
2018-08-27T00:07:52.427Z,15.40
2018-08-27T00:10:25.426Z,15.40
2018-08-27T00:12:57.766Z,15.40
2018-08-27T00:15:29.189Z,15.40
2018-08-27T00:18:01.294Z,15.40
2018-08-27T00:20:33.786Z,15.40
2018-08-27T00:23:06.087Z,15.50
2018-08-27T00:25:38.167Z,15.40
2018-08-27T00:28:10.469Z,15.40
2018-08-27T00:30:41.867Z,15.40
2018-08-27T00:33:14.226Z,15.30
2018-08-27T00:35:46.106Z,15.40
2018-08-27T00:38:18.226Z,15.30
2018-08-27T00:40:50.126Z,15.10
2018-08-27T00:43:22.365Z,15.10
2018-08-27T00:45:53.846Z,15.10
2018-08-27T00:48:26.706Z,15.20
2018-08-27T00:50:58.906Z,15.10
2018-08-27T00:53:30.846Z,15.10
2018-08-27T00:56:02.447Z,15.10
2018-08-27T00:58:34.186Z,15.00
2018-08-27T01:01:06.647Z,15.10
2018-08-27T01:03:38.386Z,15.00
2018-08-27T01:06:09.426Z,15.10
2018-08-27T01:08:41.586Z,15.00
2018-08-27T01:11:13.366Z,15.10
2018-08-27T01:13:44.906Z,15.20
2018-08-27T01:16:16.907Z,15.20
2018-08-27T01:18:47.837Z,15.10
2018-08-27T01:21:19.836Z,15.10
2018-08-27T01:23:51.537Z,15.20
2018-08-27T01:26:23.880Z,15.20
2018-08-27T01:28:55.678Z,15.30
2018-08-27T01:31:27.776Z,15.30
2018-08-27T01:33:59.517Z,15.30
2018-08-27T01:36:31.356Z,15.30
2018-08-27T01:39:02.736Z,15.30
2018-08-27T01:41:34.497Z,15.30
2018-08-27T01:44:06.556Z,15.30
2018-08-27T01:46:37.737Z,15.30
2018-08-27T01:49:09.919Z,15.30
2018-08-27T01:51:41.416Z,15.30
2018-08-27T01:54:12.956Z,15.40
2018-08-27T01:56:45.076Z,15.40
2018-08-27T01:59:16.737Z,15.50
2018-08-27T02:01:49.597Z,15.50
2018-08-27T02:04:22.037Z,15.50
2018-08-27T02:06:57.519Z,15.50
2018-08-27T02:09:30.397Z,15.60
2018-08-27T02:12:02.880Z,15.60
2018-08-27T02:14:34.597Z,15.60
2018-08-27T02:17:07.816Z,15.50
2018-08-27T02:19:39.578Z,15.60
2018-08-27T02:22:12.317Z,15.60
2018-08-27T02:24:44.497Z,15.70
2018-08-27T02:27:15.877Z,15.70
2018-08-27T02:29:47.841Z,15.80
2018-08-27T02:32:20.011Z,15.80
2018-08-27T02:34:50.938Z,15.90
2018-08-27T02:37:22.539Z,15.80
2018-08-27T02:39:54.917Z,15.80
2018-08-27T02:42:27.337Z,15.90
2018-08-27T02:44:59.057Z,15.90
2018-08-27T02:47:30.997Z,16.00
2018-08-27T02:50:02.377Z,16.10
2018-08-27T02:52:33.857Z,16.10
2018-08-27T02:55:06.117Z,16.10
2018-08-27T02:57:38.218Z,16.20
2018-08-27T03:00:09.337Z,16.20
2018-08-27T03:02:41.217Z,16.30
2018-08-27T03:05:13.497Z,16.30
2018-08-27T03:07:44.797Z,16.40
2018-08-27T03:10:16.557Z,16.40
2018-08-27T03:12:48.336Z,16.40
2018-08-27T03:15:19.697Z,16.50
2018-08-27T03:17:51.417Z,16.50
2018-08-27T03:20:23.036Z,16.60
2018-08-27T03:22:54.781Z,16.60
2018-08-27T03:25:26.717Z,16.60
2018-08-27T03:27:59.377Z,16.60
2018-08-27T03:30:30.817Z,16.60
2018-08-27T03:33:03.077Z,16.60
2018-08-27T03:35:34.516Z,16.60
2018-08-27T03:38:06.396Z,16.70
2018-08-27T03:40:37.800Z,16.70
2018-08-27T03:43:10.117Z,16.70
2018-08-27T03:45:42.097Z,16.70
2018-08-27T03:48:13.959Z,16.70
2018-08-27T03:50:45.218Z,16.70
2018-08-27T03:53:17.116Z,16.70
2018-08-27T03:55:48.897Z,16.70
2018-08-27T03:58:20.717Z,16.70
2018-08-27T04:00:52.696Z,16.80
2018-08-27T04:03:24.716Z,16.70
2018-08-27T04:05:57.178Z,16.70
2018-08-27T04:08:28.657Z,16.60
2018-08-27T04:10:59.837Z,16.70
2018-08-27T04:13:32.256Z,16.60
2018-08-27T04:16:04.577Z,16.60
2018-08-27T04:18:35.837Z,16.60
2018-08-27T04:21:07.177Z,16.60
2018-08-27T04:23:38.817Z,16.60
2018-08-27T04:26:10.618Z,16.60
2018-08-27T04:28:42.080Z,16.60
2018-08-27T04:31:13.976Z,16.70
2018-08-27T04:33:45.297Z,16.80
2018-08-27T04:36:17.236Z,16.80
2018-08-27T04:38:48.637Z,16.80
2018-08-27T04:41:20.577Z,16.80
2018-08-27T04:43:52.437Z,16.90
2018-08-27T04:46:24.160Z,16.90
2018-08-27T04:48:56.156Z,16.90
2018-08-27T04:51:28.617Z,17.00
2018-08-27T04:54:00.157Z,17.00
2018-08-27T04:56:31.717Z,17.00
2018-08-27T04:59:07.317Z,16.90
2018-08-27T05:01:39.097Z,17.00
2018-08-27T05:04:11.080Z,17.10
2018-08-27T05:06:43.317Z,17.10
2018-08-27T05:09:15.357Z,17.10
2018-08-27T05:11:47.237Z,17.10
2018-08-27T05:14:18.818Z,17.10
2018-08-27T05:16:50.300Z,17.10
2018-08-27T05:19:22.117Z,17.00
2018-08-27T05:21:54.457Z,17.00
2018-08-27T05:24:26.117Z,17.10
2018-08-27T05:26:58.398Z,17.10
2018-08-27T05:29:30.177Z,17.10
2018-08-27T05:32:02.517Z,17.10
2018-08-27T05:34:35.277Z,17.10
2018-08-27T05:37:06.717Z,17.10
2018-08-27T05:39:39.477Z,17.30
2018-08-27T05:42:11.978Z,17.20
2018-08-27T05:44:44.157Z,17.10
2018-08-27T05:47:16.660Z,17.00
2018-08-27T05:49:48.779Z,16.90
2018-08-27T05:52:20.807Z,16.90
2018-08-27T05:54:52.738Z,16.80
2018-08-27T05:57:23.817Z,16.80
2018-08-27T05:59:55.956Z,16.80
2018-08-27T06:02:27.857Z,16.80
2018-08-27T06:04:59.877Z,16.80
2018-08-27T06:07:31.677Z,16.90
2018-08-27T06:10:03.977Z,16.90
2018-08-27T06:12:35.597Z,17.00
2018-08-27T06:15:08.636Z,17.00
2018-08-27T06:17:40.916Z,17.00
2018-08-27T06:20:12.797Z,17.10
2018-08-27T06:22:44.858Z,17.20
2018-08-27T06:25:16.857Z,17.20
2018-08-27T06:27:48.817Z,17.20
2018-08-27T06:30:20.797Z,17.10
2018-08-27T06:32:52.577Z,17.20
2018-08-27T06:35:25.037Z,17.20
2018-08-27T06:37:57.411Z,17.20
2018-08-27T06:40:29.158Z,17.30
2018-08-27T06:43:00.783Z,17.40
2018-08-27T06:45:32.697Z,17.50
2018-08-27T06:48:04.658Z,17.60
2018-08-27T06:50:36.637Z,17.70
2018-08-27T06:53:08.776Z,17.70
2018-08-27T06:55:40.856Z,17.80
2018-08-27T06:58:12.738Z,17.90
2018-08-27T07:00:43.960Z,18.00
2018-08-27T07:03:15.837Z,18.10
2018-08-27T07:05:47.357Z,18.20
2018-08-27T07:08:18.856Z,18.10
2018-08-27T07:10:49.057Z,18.20
2018-08-27T07:13:21.037Z,18.20
2018-08-27T07:15:53.117Z,18.50
2018-08-27T07:18:26.159Z,18.70
2018-08-27T07:20:58.017Z,18.90
2018-08-27T07:23:30.263Z,19.00
2018-08-27T07:26:02.057Z,19.10
2018-08-27T07:28:33.397Z,19.10
2018-08-27T07:31:06.197Z,19.10
2018-08-27T07:33:37.497Z,19.00
2018-08-27T07:36:09.779Z,19.00
2018-08-27T07:38:41.117Z,19.10
2018-08-27T07:41:13.138Z,19.10
2018-08-27T07:43:45.317Z,19.00
2018-08-27T07:46:17.397Z,19.10
2018-08-27T07:48:49.337Z,19.20
2018-08-27T07:51:20.997Z,19.20
2018-08-27T07:53:53.216Z,19.30
2018-08-27T07:56:25.117Z,19.30
2018-08-27T07:58:57.596Z,19.50
2018-08-27T08:01:29.017Z,19.50
2018-08-27T08:04:01.297Z,19.40
2018-08-27T08:06:32.676Z,19.40
2018-08-27T08:09:05.917Z,19.60
2018-08-27T08:11:38.177Z,19.60
2018-08-27T08:14:10.437Z,19.70
2018-08-27T08:16:41.338Z,19.80
2018-08-27T08:19:12.682Z,19.80
2018-08-27T08:21:44.478Z,20.00
2018-08-27T08:24:16.540Z,20.10
2018-08-27T08:26:49.302Z,20.10
2018-08-27T08:29:21.439Z,20.20
2018-08-27T08:31:52.659Z,20.20
2018-08-27T08:34:24.819Z,20.30
2018-08-27T08:36:56.359Z,20.20
2018-08-27T08:39:27.964Z,20.10
2018-08-27T08:41:59.871Z,20.10
2018-08-27T08:44:30.946Z,20.10
2018-08-27T08:47:03.541Z,20.10
2018-08-27T08:49:35.459Z,20.00
2018-08-27T08:52:08.740Z,20.10
2018-08-27T08:54:40.339Z,20.20
2018-08-27T08:57:12.282Z,20.40
2018-08-27T08:59:44.298Z,20.60
2018-08-27T09:02:16.186Z,20.60
2018-08-27T09:04:47.927Z,20.60
2018-08-27T09:07:19.548Z,20.70
2018-08-27T09:09:51.907Z,20.70
2018-08-27T09:12:24.366Z,20.80
2018-08-27T09:14:55.729Z,20.80
2018-08-27T09:17:27.346Z,20.90
2018-08-27T09:19:58.053Z,21.00
2018-08-27T09:22:30.127Z,21.10
2018-08-27T09:25:02.447Z,21.20
2018-08-27T09:27:34.606Z,21.30
2018-08-27T09:30:06.227Z,21.40
2018-08-27T09:32:38.546Z,21.50
2018-08-27T09:35:10.209Z,21.60
2018-08-27T09:37:42.671Z,21.70
2018-08-27T09:40:15.326Z,21.90
2018-08-27T09:42:46.586Z,22.00
2018-08-27T09:45:19.107Z,22.10
2018-08-27T09:47:51.028Z,22.30
2018-08-27T09:50:23.347Z,22.40
2018-08-27T09:52:55.037Z,22.60
2018-08-27T09:55:27.047Z,22.70
2018-08-27T09:57:58.706Z,22.80
2018-08-27T10:00:34.887Z,22.80
2018-08-27T10:03:06.866Z,23.00
2018-08-27T10:05:39.669Z,23.20
2018-08-27T10:08:11.186Z,23.50
2018-08-27T10:10:43.206Z,23.50
2018-08-27T10:13:14.802Z,23.60
2018-08-27T10:15:47.589Z,23.80
2018-08-27T10:18:19.068Z,23.90
2018-08-27T10:20:51.549Z,24.00
2018-08-27T10:23:22.888Z,24.10
2018-08-27T10:25:55.088Z,24.20
2018-08-27T10:28:26.488Z,24.30
2018-08-27T10:30:58.968Z,24.20
2018-08-27T10:33:30.012Z,24.20
2018-08-27T10:36:01.649Z,24.20
2018-08-27T10:38:33.308Z,24.20
2018-08-27T10:41:05.109Z,24.20
2018-08-27T10:43:36.947Z,24.20
2018-08-27T10:46:09.029Z,24.20
2018-08-27T10:48:41.370Z,24.10
2018-08-27T10:51:13.592Z,24.10
2018-08-27T10:53:45.289Z,24.10
2018-08-27T10:56:17.108Z,24.20
2018-08-27T10:58:48.268Z,24.20
2018-08-27T11:01:20.088Z,24.30
2018-08-27T11:03:51.828Z,24.30
2018-08-27T11:06:23.549Z,24.20
2018-08-27T11:08:55.868Z,24.30
2018-08-27T11:11:27.375Z,24.30
2018-08-27T11:14:01.064Z,24.30
2018-08-27T11:16:33.051Z,24.40
2018-08-27T11:19:04.790Z,24.30
2018-08-27T11:21:36.450Z,24.20
2018-08-27T11:24:12.393Z,24.20
2018-08-27T11:26:44.983Z,24.30
2018-08-27T11:29:18.362Z,24.30
2018-08-27T11:31:51.481Z,24.30
2018-08-27T11:34:24.501Z,24.40
2018-08-27T11:36:56.481Z,24.40
2018-08-27T11:39:28.381Z,24.50
2018-08-27T11:42:00.380Z,24.60
2018-08-27T11:44:32.440Z,24.60
2018-08-27T11:47:04.843Z,24.70
2018-08-27T11:49:38.560Z,24.70
2018-08-27T11:52:11.122Z,24.70
2018-08-27T11:54:43.680Z,24.90
2018-08-27T11:57:15.102Z,25.00
2018-08-27T11:59:46.347Z,25.00
2018-08-27T12:02:18.262Z,25.10
2018-08-27T12:04:50.402Z,25.20
2018-08-27T12:07:21.620Z,25.30
2018-08-27T12:09:52.960Z,25.40
2018-08-27T12:12:24.043Z,25.50
2018-08-27T12:14:56.297Z,25.50
2018-08-27T12:17:29.017Z,25.50
2018-08-27T12:20:00.216Z,25.50
2018-08-27T12:22:31.874Z,25.50
2018-08-27T12:25:04.578Z,25.50
2018-08-27T12:27:37.036Z,25.50
2018-08-27T12:30:09.120Z,25.50
2018-08-27T12:32:41.218Z,25.40
2018-08-27T12:35:13.316Z,25.30
2018-08-27T12:37:45.391Z,25.30
2018-08-27T12:40:17.596Z,25.30
2018-08-27T12:42:48.956Z,25.30
2018-08-27T12:45:20.216Z,25.30
2018-08-27T12:47:52.376Z,25.40
2018-08-27T12:50:24.232Z,25.30
2018-08-27T12:52:56.616Z,25.30
2018-08-27T12:55:28.156Z,25.30
2018-08-27T12:58:00.096Z,25.40
2018-08-27T13:00:31.536Z,25.30
2018-08-27T13:03:03.398Z,25.40
2018-08-27T13:05:34.502Z,25.40
2018-08-27T13:08:06.025Z,25.40
2018-08-27T13:10:39.089Z,25.40
2018-08-27T13:13:10.936Z,25.40
2018-08-27T13:15:42.916Z,25.50
2018-08-27T13:18:13.857Z,25.50
2018-08-27T13:20:46.049Z,25.50
2018-08-27T13:23:17.869Z,25.50
2018-08-27T13:25:49.792Z,25.50
2018-08-27T13:28:22.106Z,25.50
2018-08-27T13:30:53.951Z,25.50
2018-08-27T13:33:25.946Z,25.50
2018-08-27T13:35:57.280Z,25.50
2018-08-27T13:38:29.762Z,25.50
2018-08-27T13:41:01.403Z,25.50
2018-08-27T13:43:32.302Z,25.50
2018-08-27T13:46:04.325Z,25.50
2018-08-27T13:48:35.980Z,25.60
2018-08-27T13:51:08.652Z,25.60
2018-08-27T13:53:40.102Z,25.60
2018-08-27T13:56:11.883Z,25.60
2018-08-27T13:58:43.603Z,25.60
2018-08-27T14:01:16.023Z,25.60
2018-08-27T14:03:47.822Z,25.70
2018-08-27T14:06:19.688Z,25.70
2018-08-27T14:08:51.522Z,25.80
2018-08-27T14:11:23.502Z,25.90
2018-08-27T14:13:54.880Z,25.90
2018-08-27T14:16:26.901Z,25.90
2018-08-27T14:18:58.774Z,25.70
2018-08-27T14:21:31.267Z,25.80
2018-08-27T14:24:02.288Z,25.80
2018-08-27T14:26:34.360Z,25.80
2018-08-27T14:29:06.137Z,25.90
2018-08-27T14:31:37.563Z,25.90
2018-08-27T14:34:08.842Z,25.90
2018-08-27T14:36:40.183Z,25.90
2018-08-27T14:39:12.884Z,25.80
2018-08-27T14:41:44.684Z,25.90
2018-08-27T14:44:16.264Z,25.80
2018-08-27T14:46:47.831Z,25.90
2018-08-27T14:49:19.712Z,26.00
2018-08-27T14:51:51.531Z,26.00
2018-08-27T14:54:24.015Z,26.00
2018-08-27T14:56:56.476Z,25.90
2018-08-27T14:59:30.077Z,26.00
2018-08-27T15:02:02.180Z,26.00
2018-08-27T15:04:33.245Z,25.90
2018-08-27T15:07:04.815Z,25.90
2018-08-27T15:09:37.033Z,25.90
2018-08-27T15:12:09.240Z,25.90
2018-08-27T15:14:41.102Z,25.90
2018-08-27T15:17:13.381Z,25.80
2018-08-27T15:19:45.300Z,25.90
2018-08-27T15:22:17.320Z,25.80
2018-08-27T15:24:48.046Z,25.80
2018-08-27T15:27:20.055Z,25.70
2018-08-27T15:29:51.840Z,25.70
2018-08-27T15:32:24.219Z,25.70
2018-08-27T15:34:56.118Z,25.70
2018-08-27T15:37:28.147Z,25.70
2018-08-27T15:39:59.598Z,25.70
2018-08-27T15:42:31.279Z,25.60
2018-08-27T15:45:08.437Z,25.60
2018-08-27T15:47:40.960Z,25.60
2018-08-27T15:50:12.610Z,25.70
2018-08-27T15:52:45.060Z,25.70
2018-08-27T15:55:16.277Z,25.70
2018-08-27T15:57:47.927Z,25.70
2018-08-27T16:00:18.972Z,25.70
2018-08-27T16:02:50.012Z,25.60
2018-08-27T16:05:21.292Z,25.60
2018-08-27T16:07:53.458Z,25.60
2018-08-27T16:10:25.335Z,25.50
2018-08-27T16:12:56.981Z,25.50
2018-08-27T16:15:28.713Z,25.50
2018-08-27T16:18:00.586Z,25.50
2018-08-27T16:20:32.281Z,25.60
2018-08-27T16:23:05.177Z,25.50
2018-08-27T16:25:36.766Z,25.50
2018-08-27T16:28:07.592Z,25.40
2018-08-27T16:30:39.123Z,25.40
2018-08-27T16:33:10.501Z,25.50
2018-08-27T16:35:42.243Z,25.50
2018-08-27T16:38:14.076Z,25.50
2018-08-27T16:40:45.941Z,25.40
2018-08-27T16:43:18.221Z,25.30
2018-08-27T16:45:50.061Z,25.30
2018-08-27T16:48:21.841Z,25.20
2018-08-27T16:50:54.262Z,25.20
2018-08-27T16:53:27.184Z,25.10
2018-08-27T16:55:58.870Z,25.00
2018-08-27T16:58:31.227Z,24.90
2018-08-27T17:01:04.181Z,24.90
2018-08-27T17:03:35.964Z,24.80
2018-08-27T17:06:09.583Z,24.70
2018-08-27T17:08:40.942Z,24.60
2018-08-27T17:11:12.205Z,24.60
2018-08-27T17:13:44.122Z,24.60
2018-08-27T17:16:16.842Z,24.50
2018-08-27T17:18:47.922Z,24.50
2018-08-27T17:21:19.965Z,24.30
2018-08-27T17:23:52.523Z,24.30
2018-08-27T17:26:24.602Z,24.30
2018-08-27T17:28:56.141Z,24.30
2018-08-27T17:31:28.569Z,24.20
2018-08-27T17:34:00.204Z,24.20
2018-08-27T17:36:32.603Z,24.20
2018-08-27T17:39:04.181Z,24.10
2018-08-27T17:41:36.728Z,24.00
2018-08-27T17:44:09.191Z,23.90
2018-08-27T17:46:41.881Z,23.90
2018-08-27T17:49:13.442Z,23.90
2018-08-27T17:51:45.601Z,23.90
2018-08-27T17:54:18.381Z,23.80
2018-08-27T17:56:51.521Z,23.70
2018-08-27T17:59:23.042Z,23.70
2018-08-27T18:01:55.122Z,23.70
2018-08-27T18:04:27.320Z,23.60
2018-08-27T18:06:59.041Z,23.60
2018-08-27T18:09:31.883Z,23.60
2018-08-27T18:12:03.128Z,23.50
2018-08-27T18:14:34.063Z,23.50
2018-08-27T18:17:05.444Z,23.50
2018-08-27T18:19:36.740Z,23.50
2018-08-27T18:22:09.092Z,23.40
2018-08-27T18:24:40.850Z,23.40
2018-08-27T18:27:12.591Z,23.40
2018-08-27T18:29:44.432Z,23.30
2018-08-27T18:32:15.730Z,23.20
2018-08-27T18:34:47.281Z,23.20
2018-08-27T18:37:19.529Z,23.20
2018-08-27T18:39:51.570Z,23.10
2018-08-27T18:42:23.489Z,23.10
2018-08-27T18:44:56.138Z,23.10
2018-08-27T18:47:27.549Z,23.10
2018-08-27T18:49:59.970Z,23.10
2018-08-27T18:52:31.789Z,23.00
2018-08-27T18:55:03.770Z,23.00
2018-08-27T18:57:35.532Z,23.00
2018-08-27T19:00:07.729Z,23.00
2018-08-27T19:02:40.518Z,23.10
2018-08-27T19:05:12.830Z,23.20
2018-08-27T19:07:44.829Z,23.30
2018-08-27T19:10:16.149Z,23.30
2018-08-27T19:12:48.513Z,23.20
2018-08-27T19:15:19.649Z,23.20
2018-08-27T19:17:51.502Z,23.20
2018-08-27T19:20:23.948Z,23.20
2018-08-27T19:22:55.835Z,23.20
2018-08-27T19:25:27.334Z,23.10
2018-08-27T19:27:59.074Z,23.10
2018-08-27T19:30:31.235Z,23.10
2018-08-27T19:33:03.116Z,23.00
2018-08-27T19:35:35.622Z,23.00
2018-08-27T19:38:07.415Z,23.00
2018-08-27T19:40:39.194Z,23.00
2018-08-27T19:43:11.227Z,22.90
2018-08-27T19:45:43.722Z,22.30
2018-08-27T19:48:15.378Z,22.90
2018-08-27T19:50:46.879Z,22.90
2018-08-27T19:53:19.254Z,22.90
2018-08-27T19:55:50.914Z,22.90
2018-08-27T19:58:23.055Z,22.90
2018-08-27T20:00:55.834Z,22.90
2018-08-27T20:03:27.513Z,22.90
2018-08-27T20:05:59.174Z,22.90
2018-08-27T20:08:30.876Z,22.90
2018-08-27T20:11:03.114Z,22.90
2018-08-27T20:13:36.381Z,22.90
2018-08-27T20:16:09.315Z,22.90
2018-08-27T20:18:41.216Z,23.00
2018-08-27T20:21:12.498Z,23.00
2018-08-27T20:23:45.435Z,22.90
2018-08-27T20:26:18.196Z,22.90
2018-08-27T20:28:50.425Z,22.90
2018-08-27T20:31:22.734Z,23.00
2018-08-27T20:33:54.355Z,23.00
2018-08-27T20:36:26.949Z,23.00
2018-08-27T20:38:59.536Z,23.00
2018-08-27T20:41:31.455Z,23.10
2018-08-27T20:44:04.996Z,23.10
2018-08-27T20:46:36.916Z,23.10
2018-08-27T20:49:07.875Z,23.10
2018-08-27T20:51:39.816Z,23.10
2018-08-27T20:54:13.455Z,23.10
2018-08-27T20:56:46.154Z,23.10
2018-08-27T20:59:19.095Z,23.10
2018-08-27T21:01:50.556Z,23.10
2018-08-27T21:04:23.032Z,23.10
2018-08-27T21:06:54.834Z,23.00
2018-08-27T21:09:26.984Z,23.00
2018-08-27T21:11:58.557Z,23.00
2018-08-27T21:15:09.296Z,23.00
2018-08-27T21:17:42.975Z,23.00
2018-08-27T21:20:15.536Z,22.90
2018-08-27T21:22:47.722Z,22.80
2018-08-27T21:25:20.210Z,22.90
2018-08-27T21:27:52.328Z,22.90
2018-08-27T21:30:24.368Z,22.80
2018-08-27T21:32:55.790Z,22.80
2018-08-27T21:35:28.051Z,22.80
2018-08-27T21:38:01.043Z,22.80
2018-08-27T21:40:32.469Z,22.70
2018-08-27T21:43:04.687Z,22.70
2018-08-27T21:45:36.512Z,22.60
2018-08-27T21:48:08.367Z,22.60
2018-08-27T21:50:39.528Z,22.60
2018-08-27T21:53:11.130Z,22.60
2018-08-27T21:55:43.029Z,22.50
2018-08-27T21:58:14.868Z,22.50
2018-08-27T22:00:50.892Z,22.50
2018-08-27T22:03:27.428Z,22.30
2018-08-27T22:05:59.027Z,22.20
2018-08-27T22:08:31.511Z,22.10
2018-08-27T22:11:03.167Z,22.10
2018-08-27T22:13:34.867Z,22.10
2018-08-27T22:16:06.630Z,22.10
2018-08-27T22:18:38.447Z,22.10
2018-08-27T22:21:09.708Z,22.10
2018-08-27T22:23:41.808Z,22.10
2018-08-27T22:26:13.468Z,22.00
2018-08-27T22:28:45.468Z,22.00
2018-08-27T22:31:16.707Z,22.00
2018-08-27T22:33:48.968Z,21.90
2018-08-27T22:36:20.148Z,22.00
2018-08-27T22:38:52.152Z,21.90
2018-08-27T22:41:23.930Z,22.00
2018-08-27T22:43:56.607Z,22.00
2018-08-27T22:46:28.008Z,21.90
2018-08-27T22:48:59.647Z,21.80
2018-08-27T22:51:31.129Z,21.80
2018-08-27T22:54:02.270Z,21.80
2018-08-27T22:56:34.108Z,21.80
2018-08-27T22:59:06.028Z,21.80
2018-08-27T23:01:37.770Z,21.80
2018-08-27T23:04:12.887Z,21.80
2018-08-27T23:06:44.708Z,21.70
2018-08-27T23:09:17.947Z,21.60
2018-08-27T23:11:50.008Z,21.60
2018-08-27T23:14:21.927Z,21.60
2018-08-27T23:16:53.489Z,21.70
2018-08-27T23:19:25.367Z,21.70
2018-08-27T23:21:56.928Z,21.70
2018-08-27T23:24:29.167Z,21.60
2018-08-27T23:27:01.132Z,21.60
2018-08-27T23:29:33.588Z,21.50
2018-08-27T23:32:05.752Z,21.50
2018-08-27T23:34:37.287Z,21.50
2018-08-27T23:37:09.367Z,21.50
2018-08-27T23:39:41.002Z,21.50
2018-08-27T23:42:13.548Z,21.50
2018-08-27T23:44:45.368Z,21.50
2018-08-27T23:47:17.387Z,21.60
2018-08-27T23:49:49.287Z,21.50
2018-08-27T23:52:21.147Z,21.60
2018-08-27T23:54:54.128Z,21.60
2018-08-27T23:57:25.907Z,21.50
2018-08-27T23:59:57.748Z,21.50
